ΕΜΥ, Εθνική Μετεωρολογική Υπηρεσία - Δελτία Καιρού, Προγνώσεις

ΑΕΡΟΝΑΥΤΙΛΙΑ

GREEK AIRPORTS CODES

LGAV 190350Z 29002KT 5000 BR FEW020 SCT070 12/11 Q1014 RMK SCT180 NOSIG=

EUROPEAN AIRPORTS CODES

LFPO 190330Z 34002KT CAVOK 05/02 Q1021 NOSIG=